CES5478 ZUCK-ZSPD
Flight info
| Callsign | CES5478 |
|---|---|
| Flight time | N/A |
| Altitude | 37100 |
| Route | OLNER B213 OLPOV/K0804S1190 B213 WHA R343 EKIMU |
| Aircraft | A20N/M-SDE2E3FGHIRWXY/LB1 |
Departure
| Time | 2026-04-30 09:51 |
|---|---|
| Airport | Chongqing Jiangbei International Airport (ZUCK) |
Arrival
| Time | N/A |
|---|---|
| Airport | Shanghai Pudong International Airport (ZSPD) |
| Time | Latitude | Longitude | Altitude | Speed | Heading |
|---|---|---|---|---|---|
| 2026-04-30 09:02 | 29.71129 | 106.64734 | 1373 ft | 0 kts | 130° |
| 2026-04-30 09:39 | 29.71136 | 106.64726 | 1373 ft | 2 kts | 130° |
| 2026-04-30 09:40 | 29.71145 | 106.64712 | 1373 ft | 2 kts | 131° |
| 2026-04-30 09:40 | 29.71154 | 106.64700 | 1373 ft | 0 kts | 130° |
| 2026-04-30 09:40 | 29.71161 | 106.64690 | 1373 ft | 2 kts | 111° |
| 2026-04-30 09:40 | 29.71164 | 106.64673 | 1373 ft | 2 kts | 86° |
| 2026-04-30 09:41 | 29.71160 | 106.64657 | 1373 ft | 2 kts | 61° |
| 2026-04-30 09:41 | 29.71154 | 106.64646 | 1373 ft | 0 kts | 43° |
| 2026-04-30 09:41 | 29.71148 | 106.64641 | 1373 ft | 0 kts | 39° |
| 2026-04-30 09:43 | 29.71151 | 106.64644 | 1373 ft | 1 kts | 40° |
| 2026-04-30 09:43 | 29.71160 | 106.64654 | 1373 ft | 2 kts | 41° |
| 2026-04-30 09:44 | 29.71179 | 106.64671 | 1373 ft | 4 kts | 41° |
| 2026-04-30 09:44 | 29.71208 | 106.64700 | 1373 ft | 6 kts | 40° |
| 2026-04-30 09:44 | 29.71249 | 106.64740 | 1373 ft | 8 kts | 40° |
| 2026-04-30 09:44 | 29.71301 | 106.64780 | 1373 ft | 9 kts | 14° |
| 2026-04-30 09:45 | 29.71349 | 106.64735 | 1373 ft | 11 kts | 289° |
| 2026-04-30 09:45 | 29.71330 | 106.64655 | 1373 ft | 12 kts | 208° |
| 2026-04-30 09:45 | 29.71241 | 106.64623 | 1373 ft | 14 kts | 197° |
| 2026-04-30 09:45 | 29.71142 | 106.64588 | 1373 ft | 15 kts | 197° |
| 2026-04-30 09:46 | 29.71034 | 106.64551 | 1373 ft | 16 kts | 197° |
| 2026-04-30 09:46 | 29.70919 | 106.64511 | 1373 ft | 17 kts | 197° |
| 2026-04-30 09:46 | 29.70799 | 106.64470 | 1372 ft | 18 kts | 197° |
| 2026-04-30 09:46 | 29.70674 | 106.64427 | 1372 ft | 17 kts | 196° |
| 2026-04-30 09:47 | 29.70600 | 106.64395 | 1372 ft | 6 kts | 234° |
| 2026-04-30 09:47 | 29.70598 | 106.64344 | 1372 ft | 7 kts | 284° |
| 2026-04-30 09:47 | 29.70608 | 106.64304 | 1372 ft | 7 kts | 287° |
| 2026-04-30 09:47 | 29.70622 | 106.64249 | 1372 ft | 5 kts | 287° |
| 2026-04-30 09:48 | 29.70625 | 106.64240 | 1372 ft | 0 kts | 287° |
| 2026-04-30 09:49 | 29.70626 | 106.64236 | 1372 ft | 1 kts | 287° |
| 2026-04-30 09:49 | 29.70630 | 106.64222 | 1372 ft | 2 kts | 287° |
| 2026-04-30 09:49 | 29.70637 | 106.64194 | 1372 ft | 4 kts | 287° |
| 2026-04-30 09:50 | 29.70657 | 106.64159 | 1372 ft | 6 kts | 321° |
| 2026-04-30 09:50 | 29.70704 | 106.64147 | 1372 ft | 7 kts | 14° |
| 2026-04-30 09:50 | 29.70715 | 106.64151 | 1372 ft | 1 kts | 18° |
| 2026-04-30 09:50 | 29.70931 | 106.64226 | 1372 ft | 67 kts | 17° |
| 2026-04-30 09:51 | 29.71590 | 106.64453 | 1374 ft | 127 kts | 17° |
| 2026-04-30 09:51 | 29.72624 | 106.64803 | 1394 ft | 173 kts | 16° |
| 2026-04-30 09:51 | 29.73749 | 106.65204 | 2029 ft | 164 kts | 17° |
| 2026-04-30 09:51 | 29.74830 | 106.65616 | 2573 ft | 166 kts | 19° |
| 2026-04-30 09:52 | 29.75834 | 106.66019 | 3064 ft | 167 kts | 19° |
| 2026-04-30 09:52 | 29.76932 | 106.66434 | 3478 ft | 170 kts | 16° |
| 2026-04-30 09:52 | 29.78095 | 106.66811 | 3877 ft | 173 kts | 14° |
| 2026-04-30 09:52 | 29.79271 | 106.67168 | 4328 ft | 175 kts | 14° |
| 2026-04-30 09:53 | 29.80461 | 106.67540 | 4680 ft | 185 kts | 16° |
| 2026-04-30 09:53 | 29.81775 | 106.67970 | 4920 ft | 204 kts | 17° |
| 2026-04-30 09:53 | 29.83235 | 106.68462 | 4932 ft | 235 kts | 18° |
| 2026-04-30 09:53 | 29.84937 | 106.69047 | 4897 ft | 265 kts | 18° |
| 2026-04-30 09:54 | 29.86742 | 106.69671 | 4896 ft | 272 kts | 18° |
| 2026-04-30 09:54 | 29.88572 | 106.70305 | 4928 ft | 276 kts | 17° |
| 2026-04-30 09:54 | 29.90436 | 106.70949 | 5366 ft | 285 kts | 17° |
| 2026-04-30 09:54 | 29.92307 | 106.71591 | 6201 ft | 283 kts | 18° |
| 2026-04-30 09:55 | 29.94195 | 106.72244 | 6982 ft | 286 kts | 18° |
| 2026-04-30 09:55 | 29.96108 | 106.72906 | 7720 ft | 289 kts | 18° |
| 2026-04-30 09:55 | 29.98053 | 106.73579 | 8438 ft | 293 kts | 18° |
| 2026-04-30 09:55 | 30.00018 | 106.74262 | 9179 ft | 297 kts | 18° |
| 2026-04-30 09:56 | 30.02002 | 106.74952 | 9995 ft | 299 kts | 17° |
| 2026-04-30 09:56 | 30.03982 | 106.75641 | 10773 ft | 305 kts | 17° |
| 2026-04-30 09:56 | 30.06067 | 106.76366 | 11290 ft | 322 kts | 17° |
| 2026-04-30 09:56 | 30.08258 | 106.77128 | 11882 ft | 332 kts | 17° |
| 2026-04-30 09:57 | 30.10494 | 106.77904 | 12500 ft | 338 kts | 17° |
| 2026-04-30 09:57 | 30.12779 | 106.78697 | 13050 ft | 345 kts | 17° |
| 2026-04-30 09:57 | 30.15068 | 106.79587 | 13504 ft | 352 kts | 26° |
| 2026-04-30 09:57 | 30.16901 | 106.81113 | 13913 ft | 360 kts | 48° |
| 2026-04-30 09:58 | 30.18226 | 106.83569 | 14485 ft | 361 kts | 71° |
| 2026-04-30 09:58 | 30.18634 | 106.86377 | 15170 ft | 358 kts | 94° |
| 2026-04-30 09:58 | 30.18164 | 106.89168 | 15826 ft | 355 kts | 109° |
| 2026-04-30 09:58 | 30.17403 | 106.91875 | 16407 ft | 359 kts | 110° |
| 2026-04-30 09:59 | 30.15847 | 106.97432 | 17496 ft | 369 kts | 109° |
| 2026-04-30 09:59 | 30.14307 | 107.03165 | 18612 ft | 376 kts | 108° |
| 2026-04-30 10:00 | 30.12763 | 107.08964 | 19632 ft | 385 kts | 108° |
| 2026-04-30 10:00 | 30.11972 | 107.11935 | 20165 ft | 388 kts | 108° |
| 2026-04-30 10:01 | 30.10381 | 107.17926 | 21164 ft | 394 kts | 108° |
| 2026-04-30 10:01 | 30.09573 | 107.20960 | 21614 ft | 399 kts | 108° |
| 2026-04-30 10:01 | 30.08750 | 107.24045 | 22079 ft | 404 kts | 108° |
| 2026-04-30 10:02 | 30.07090 | 107.30255 | 23016 ft | 411 kts | 108° |
| 2026-04-30 10:02 | 30.06239 | 107.33437 | 23488 ft | 415 kts | 108° |
| 2026-04-30 10:02 | 30.05397 | 107.36584 | 23968 ft | 417 kts | 108° |